Time;durP1;ratioP1;P1;durP2;ratioP2;P2;SDS_P1;SDS_P2;PMS_P1;PMS_P2;Temp;Humidity;BMP_temperature;BMP_pressure;BME280_temperature;BME280_humidity;BME280_pressure;Samples;Min_cycle;Max_cycle;Signal;HPM_P1;HPM_P2
2023/01/12 00:01:28;;;;;;;;;;;;;;;4.90;80.93;98685.47;7383806;19;19946;-84
2023/01/12 00:03:55;;;;;;;;;;;;;;;4.87;80.95;98687.47;7381431;19;19923;-83
2023/01/12 00:06:22;;;;;;;;;;;;;;;4.93;80.68;98687.88;7382444;19;19917;-84
2023/01/12 00:08:49;;;;;;;;;;;;;;;4.74;81.04;98672.66;7380205;19;19943;-82
2023/01/12 00:11:16;;;;;;;;;;;;;;;4.87;80.50;98677.84;7385443;19;19939;-83
2023/01/12 00:13:42;;;;;;;;;;;;;;;4.93;80.89;98671.31;7384103;19;20356;-84
2023/01/12 00:16:36;;;;;;;;;;;;;;;4.86;80.98;98667.44;7381014;19;19914;-83
2023/01/12 00:19:10;;;;;;;;;;;;;;;4.86;81.10;98663.03;7383322;19;19919;-82
2023/01/12 00:21:42;;;;;;;;;;;;;;;4.98;81.09;98669.19;7383870;19;19963;-83
2023/01/12 00:24:09;;;;;;;;;;;;;;;5.08;81.10;98664.91;7378592;19;19914;-83
2023/01/12 00:26:35;;;;;;;;;;;;;;;5.17;80.89;98666.84;7384182;19;19922;-84
2023/01/12 00:29:02;;;;;;;;;;;;;;;5.24;80.74;98681.19;7378951;19;19922;-83
2023/01/12 00:31:29;;;;;;;;;;;;;;;5.39;80.63;98673.94;7385225;19;20020;-83
2023/01/12 00:33:55;;;;;;;;;;;;;;;5.38;81.01;98674.91;7380041;19;20450;-84
2023/01/12 00:36:22;;;;;;;;;;;;;;;5.57;80.30;98681.38;7382975;19;20757;-84
2023/01/12 00:38:49;;;;;;;;;;;;;;;5.50;80.15;98681.00;7381236;19;19922;-83
2023/01/12 00:45:20;;;;;;;;;;;;;;;5.42;80.14;98678.94;7381128;19;20645;-84
2023/01/12 00:46:48;;;;;;;;;;;;;;;5.54;79.92;98671.13;7384062;19;20258;-83
2023/01/12 00:49:15;;;;;;;;;;;;;;;5.55;79.71;98657.03;7385349;19;19934;-84
2023/01/12 00:51:41;;;;;;;;;;;;;;;5.38;79.99;98650.47;7385016;19;19926;-83
2023/01/12 00:54:08;;;;;;;;;;;;;;;5.49;80.32;98653.09;7384899;19;19935;-83
2023/01/12 00:56:35;;;;;;;;;;;;;;;5.49;80.13;98660.97;7381395;19;19922;-84
2023/01/12 00:59:01;;;;;;;;;;;;;;;5.46;80.50;98663.84;7382111;19;19914;-83
2023/01/12 01:01:28;;;;;;;;;;;;;;;5.57;80.29;98665.63;7382289;19;19918;-83
2023/01/12 01:03:54;;;;;;;;;;;;;;;5.59;80.02;98659.31;7382573;19;19923;-83
2023/01/12 01:06:21;;;;;;;;;;;;;;;5.58;80.38;98657.66;7382833;19;19922;-84
2023/01/12 01:08:48;;;;;;;;;;;;;;;5.66;79.69;98654.41;7384430;19;19923;-82
2023/01/12 01:11:14;;;;;;;;;;;;;;;5.49;80.00;98651.31;7386681;19;19918;-83
2023/01/12 01:13:42;;;;;;;;;;;;;;;5.54;79.70;98661.47;7384143;19;19935;-82
2023/01/12 01:16:10;;;;;;;;;;;;;;;5.66;79.75;98649.16;7374761;19;20590;-83
2023/01/12 01:18:36;;;;;;;;;;;;;;;5.60;79.78;98647.84;7375626;19;20281;-82
2023/01/12 01:21:03;;;;;;;;;;;;;;;5.53;79.67;98649.31;7375504;19;19921;-82
2023/01/12 01:23:32;;;;;;;;;;;;;;;5.69;79.28;98649.78;7385308;19;19984;-83
2023/01/12 01:26:06;;;;;;;;;;;;;;;5.58;79.64;98647.16;7382710;19;19927;-83
2023/01/12 01:28:32;;;;;;;;;;;;;;;5.64;79.41;98641.44;7385405;19;20454;-82
2023/01/12 01:31:03;;;;;;;;;;;;;;;5.59;78.81;98651.44;7377126;19;19923;-83
2023/01/12 01:33:38;;;;;;;;;;;;;;;5.58;79.41;98662.06;7377777;19;19926;-83
2023/01/12 01:36:04;;;;;;;;;;;;;;;5.49;79.91;98653.94;7374529;19;19918;-83
2023/01/12 01:38:31;;;;;;;;;;;;;;;5.63;79.92;98655.50;7385754;19;19914;-83
2023/01/12 01:40:58;;;;;;;;;;;;;;;5.68;79.92;98668.28;7377862;19;20615;-83
2023/01/12 01:43:25;;;;;;;;;;;;;;;5.92;79.29;98668.16;7382010;19;19923;-82
2023/01/12 01:46:03;;;;;;;;;;;;;;;5.76;79.63;98668.50;7375901;19;19911;-82
2023/01/12 01:48:30;;;;;;;;;;;;;;;5.80;79.57;98662.09;7377212;19;20256;-83
2023/01/12 01:50:57;;;;;;;;;;;;;;;5.86;79.53;98666.03;7370437;19;19926;-81
2023/01/12 01:53:25;;;;;;;;;;;;;;;5.88;79.54;98672.00;7379793;19;19910;-82
2023/01/12 01:55:53;;;;;;;;;;;;;;;5.92;79.54;98665.53;7379172;19;19935;-82
2023/01/12 01:58:22;;;;;;;;;;;;;;;6.02;79.44;98671.78;7382123;19;19923;-82
2023/01/12 02:00:48;;;;;;;;;;;;;;;5.89;79.39;98665.78;7382370;19;19919;-81
2023/01/12 02:03:15;;;;;;;;;;;;;;;5.98;79.18;98670.38;7377832;19;19943;-81
2023/01/12 02:05:43;;;;;;;;;;;;;;;5.97;79.05;98665.22;7369421;19;19915;-82
2023/01/12 02:08:18;;;;;;;;;;;;;;;6.09;78.94;98661.66;7375653;19;19918;-83
2023/01/12 02:10:45;;;;;;;;;;;;;;;6.06;79.03;98664.53;7380072;19;19919;-83
2023/01/12 02:16:22;;;;;;;;;;;;;;;6.11;78.89;98647.44;7375395;19;19925;-81
2023/01/12 02:18:52;;;;;;;;;;;;;;;6.11;78.42;98644.81;7384813;19;19925;-82
2023/01/12 02:21:19;;;;;;;;;;;;;;;6.15;78.20;98634.88;7377816;19;19930;-83
2023/01/12 02:23:54;;;;;;;;;;;;;;;6.26;78.11;98636.66;7376348;19;19926;-81
2023/01/12 02:26:24;;;;;;;;;;;;;;;6.01;78.07;98627.28;7381028;19;20686;-81
2023/01/12 02:29:05;;;;;;;;;;;;;;;6.01;78.23;98630.72;7379081;19;19921;-81
2023/01/12 02:31:32;;;;;;;;;;;;;;;6.08;78.21;98631.94;7377227;19;19921;-81
2023/01/12 02:34:00;;;;;;;;;;;;;;;6.12;77.69;98625.44;7374962;19;19935;-81
2023/01/12 02:36:46;;;;;;;;;;;;;;;6.14;77.67;98618.28;7379202;19;20610;-82
2023/01/12 02:39:13;;;;;;;;;;;;;;;6.24;77.63;98610.53;7375210;19;19918;-79
2023/01/12 02:44:51;;;;;;;;;;;;;;;6.20;77.49;98608.25;7381034;19;19915;-81
2023/01/12 02:47:23;;;;;;;;;;;;;;;6.24;77.19;98601.78;7373981;19;20322;-82
2023/01/12 02:49:50;;;;;;;;;;;;;;;6.30;76.97;98593.44;7381681;19;20341;-81
2023/01/12 02:52:17;;;;;;;;;;;;;;;6.35;76.93;98584.22;7376110;19;19997;-81
2023/01/12 02:54:45;;;;;;;;;;;;;;;6.40;76.79;98583.00;7379246;19;20770;-80
2023/01/12 02:57:12;;;;;;;;;;;;;;;6.42;76.52;98584.53;7370627;19;19922;-82
2023/01/12 02:59:40;;;;;;;;;;;;;;;6.48;76.22;98572.72;7377970;19;19918;-82
2023/01/12 03:02:07;;;;;;;;;;;;;;;6.35;76.85;98583.38;7374792;19;20784;-81
2023/01/12 03:04:34;;;;;;;;;;;;;;;6.25;76.90;98579.81;7381768;19;19914;-81
2023/01/12 03:07:01;;;;;;;;;;;;;;;6.28;76.86;98574.31;7372094;19;19923;-80
2023/01/12 03:09:29;;;;;;;;;;;;;;;6.24;77.12;98576.38;7389950;19;19919;-82
2023/01/12 03:11:58;;;;;;;;;;;;;;;6.27;77.03;98576.13;7380782;19;19927;-82
2023/01/12 03:14:24;;;;;;;;;;;;;;;6.17;77.02;98574.34;7382632;19;19918;-83
2023/01/12 03:16:51;;;;;;;;;;;;;;;6.29;76.65;98589.13;7378687;19;19933;-81
2023/01/12 03:19:19;;;;;;;;;;;;;;;6.29;76.74;98582.09;7383929;19;19915;-82
2023/01/12 03:21:50;;;;;;;;;;;;;;;6.27;76.27;98588.44;7386261;19;19922;-81
2023/01/12 03:24:18;;;;;;;;;;;;;;;6.33;76.45;98580.88;7387444;19;20024;-81
2023/01/12 03:26:49;;;;;;;;;;;;;;;6.46;76.31;98580.72;7387819;19;19929;-82
2023/01/12 03:29:18;;;;;;;;;;;;;;;6.57;75.74;98585.09;7382781;19;20240;-81
2023/01/12 03:31:45;;;;;;;;;;;;;;;6.47;76.36;98585.00;7385814;19;19919;-80
2023/01/12 03:34:11;;;;;;;;;;;;;;;6.48;76.02;98581.44;7382648;19;20375;-81
2023/01/12 03:36:54;;;;;;;;;;;;;;;6.64;75.58;98572.31;7386953;19;20375;-82
2023/01/12 03:39:23;;;;;;;;;;;;;;;6.46;75.78;98574.63;7389055;19;19919;-81
2023/01/12 03:41:58;;;;;;;;;;;;;;;6.54;75.85;98578.28;7386821;19;19929;-80
2023/01/12 03:44:46;;;;;;;;;;;;;;;6.49;75.88;98569.13;7386028;19;19923;-82
2023/01/12 03:47:26;;;;;;;;;;;;;;;6.40;76.13;98570.72;7378136;19;19915;-82
2023/01/12 03:49:54;;;;;;;;;;;;;;;6.35;75.97;98578.13;7384265;19;20548;-81
2023/01/12 03:52:21;;;;;;;;;;;;;;;6.29;76.28;98568.09;7387253;19;19915;-82
2023/01/12 03:54:47;;;;;;;;;;;;;;;6.37;76.21;98570.94;7388533;19;19926;-81
2023/01/12 03:57:15;;;;;;;;;;;;;;;6.40;75.96;98572.47;7380686;19;19922;-81
2023/01/12 03:59:42;;;;;;;;;;;;;;;6.35;76.16;98571.06;7389253;19;19989;-81
2023/01/12 04:02:08;;;;;;;;;;;;;;;6.39;75.88;98574.28;7380908;19;19922;-83
2023/01/12 04:04:35;;;;;;;;;;;;;;;6.41;76.00;98571.53;7378528;19;19941;-81
2023/01/12 04:07:01;;;;;;;;;;;;;;;6.40;76.10;98575.97;7383167;19;19923;-83
2023/01/12 04:09:28;;;;;;;;;;;;;;;6.41;76.12;98566.28;7388874;19;19918;-82
2023/01/12 04:12:10;;;;;;;;;;;;;;;6.37;76.22;98565.69;7383344;19;19930;-80
2023/01/12 04:14:37;;;;;;;;;;;;;;;6.45;76.18;98562.44;7385193;19;20369;-81
2023/01/12 04:17:04;;;;;;;;;;;;;;;6.55;75.89;98555.47;7377973;19;20005;-82
2023/01/12 04:19:30;;;;;;;;;;;;;;;6.51;75.83;98552.25;7384649;19;19914;-82
2023/01/12 04:24:42;;;;;;;;;;;;;;;6.46;76.42;98549.19;7385403;19;19954;-82
2023/01/12 04:27:09;;;;;;;;;;;;;;;6.55;76.17;98543.16;7380925;19;19991;-81
2023/01/12 04:29:36;;;;;;;;;;;;;;;6.69;76.13;98554.31;7390344;19;19929;-81
2023/01/12 04:32:03;;;;;;;;;;;;;;;6.54;76.12;98549.38;7383617;19;20676;-80
2023/01/12 04:34:30;;;;;;;;;;;;;;;6.56;75.90;98542.22;7383727;19;19970;-81
2023/01/12 04:36:56;;;;;;;;;;;;;;;6.56;76.30;98528.25;7378567;19;19914;-82
2023/01/12 04:39:23;;;;;;;;;;;;;;;6.66;75.95;98530.91;7384123;19;19922;-83
2023/01/12 04:41:50;;;;;;;;;;;;;;;6.59;75.78;98517.47;7383747;19;19915;-81
2023/01/12 04:44:16;;;;;;;;;;;;;;;6.58;75.70;98521.03;7379337;19;19917;-81
2023/01/12 04:46:43;;;;;;;;;;;;;;;6.63;75.69;98521.50;7381115;19;19915;-80
2023/01/12 04:49:09;;;;;;;;;;;;;;;6.60;75.74;98509.44;7380101;19;19914;-82
2023/01/12 04:51:36;;;;;;;;;;;;;;;6.56;76.09;98509.84;7384570;19;19933;-80
2023/01/12 04:54:03;;;;;;;;;;;;;;;6.58;76.07;98503.50;7374338;19;19946;-81
2023/01/12 04:56:30;;;;;;;;;;;;;;;6.51;76.03;98504.13;7383561;19;19907;-80
2023/01/12 04:58:58;;;;;;;;;;;;;;;6.55;76.26;98508.97;7379947;19;19918;-81
2023/01/12 05:01:26;;;;;;;;;;;;;;;6.52;76.45;98506.59;7383053;19;19926;-81
2023/01/12 05:03:53;;;;;;;;;;;;;;;6.61;76.46;98507.66;7382252;19;19918;-83
2023/01/12 05:06:20;;;;;;;;;;;;;;;6.78;75.27;98503.63;7378776;19;19914;-82
2023/01/12 05:11:32;;;;;;;;;;;;;;;6.80;75.32;98507.78;7384811;19;19919;-81
2023/01/12 05:13:59;;;;;;;;;;;;;;;6.91;74.95;98496.38;7373118;19;19933;-82
2023/01/12 05:16:26;;;;;;;;;;;;;;;6.80;75.33;98492.00;7378758;19;20296;-81
2023/01/12 05:18:53;;;;;;;;;;;;;;;6.93;74.96;98510.22;7381709;19;19940;-80
2023/01/12 05:21:21;;;;;;;;;;;;;;;6.97;74.72;98503.72;7377062;19;20264;-82
2023/01/12 05:23:48;;;;;;;;;;;;;;;7.01;74.69;98507.78;7378985;19;19918;-82
2023/01/12 05:26:14;;;;;;;;;;;;;;;7.00;74.41;98500.84;7375241;19;19919;-82
2023/01/12 05:28:41;;;;;;;;;;;;;;;7.03;74.38;98503.22;7382898;19;20575;-82
2023/01/12 05:31:09;;;;;;;;;;;;;;;7.01;74.55;98505.16;7375878;19;20388;-80
2023/01/12 05:33:36;;;;;;;;;;;;;;;7.08;74.22;98497.53;7384272;19;20654;-83
2023/01/12 05:36:07;;;;;;;;;;;;;;;7.24;74.02;98495.28;7373904;19;20010;-81
2023/01/12 05:38:33;;;;;;;;;;;;;;;7.23;73.65;98490.16;7377934;19;19942;-83
2023/01/12 05:41:00;;;;;;;;;;;;;;;7.18;73.99;98490.53;7373720;19;19919;-83
2023/01/12 05:46:13;;;;;;;;;;;;;;;7.35;73.53;98490.91;7375637;19;22122;-80
2023/01/12 05:48:39;;;;;;;;;;;;;;;7.31;73.64;98487.69;7379181;19;20001;-82
2023/01/12 05:51:06;;;;;;;;;;;;;;;7.39;72.98;98490.50;7367957;19;19914;-82
2023/01/12 05:53:35;;;;;;;;;;;;;;;7.30;73.65;98493.09;7376622;19;19927;-82
2023/01/12 05:56:09;;;;;;;;;;;;;;;7.47;72.91;98493.28;7372253;19;20529;-81
2023/01/12 05:58:35;;;;;;;;;;;;;;;7.36;72.66;98503.91;7379278;19;19930;-82
2023/01/12 06:01:07;;;;;;;;;;;;;;;7.38;73.16;98504.63;7371264;19;20815;-85
2023/01/12 06:03:34;;;;;;;;;;;;;;;7.37;72.97;98494.22;7379863;19;19918;-81
2023/01/12 06:06:01;;;;;;;;;;;;;;;7.37;72.99;98476.66;7375437;19;19933;-79
2023/01/12 06:08:31;;;;;;;;;;;;;;;7.41;72.89;98479.84;7378692;19;20377;-83
2023/01/12 06:11:01;;;;;;;;;;;;;;;7.34;72.65;98470.81;7377418;19;19925;-82
2023/01/12 06:16:12;;;;;;;;;;;;;;;7.26;73.02;98466.19;7373477;19;19978;-83
2023/01/12 06:18:39;;;;;;;;;;;;;;;7.20;73.13;98472.00;7379125;19;19915;-81
2023/01/12 06:21:06;;;;;;;;;;;;;;;7.24;72.71;98460.22;7368627;19;19919;-82
2023/01/12 06:23:33;;;;;;;;;;;;;;;7.15;73.38;98464.50;7375634;19;20669;-84
2023/01/12 06:26:04;;;;;;;;;;;;;;;7.29;73.16;98459.84;7373679;19;19988;-81
2023/01/12 06:28:31;;;;;;;;;;;;;;;7.29;73.15;98450.16;7376842;19;20289;-82
2023/01/12 06:30:58;;;;;;;;;;;;;;;7.23;73.43;98438.34;7373178;19;19918;-83
2023/01/12 06:33:26;;;;;;;;;;;;;;;7.34;73.01;98442.69;7378678;19;19911;-82
2023/01/12 06:35:53;;;;;;;;;;;;;;;7.26;73.13;98442.53;7373818;19;19985;-81
2023/01/12 06:38:22;;;;;;;;;;;;;;;7.33;73.21;98442.84;7374352;19;19914;-80
2023/01/12 06:40:48;;;;;;;;;;;;;;;7.35;73.22;98452.25;7383293;19;19929;-82
2023/01/12 06:43:15;;;;;;;;;;;;;;;7.28;73.15;98451.13;7381601;19;19918;-83
2023/01/12 06:45:42;;;;;;;;;;;;;;;7.42;72.64;98455.19;7381659;19;19922;-81
2023/01/12 06:48:08;;;;;;;;;;;;;;;7.37;72.63;98455.59;7374934;19;19922;-83
2023/01/12 06:50:35;;;;;;;;;;;;;;;7.35;73.16;98448.81;7384217;19;19915;-83
2023/01/12 06:53:03;;;;;;;;;;;;;;;7.46;72.67;98446.06;7380547;19;20556;-80
2023/01/12 06:55:29;;;;;;;;;;;;;;;7.37;72.84;98463.50;7383168;19;19918;-81
2023/01/12 06:57:56;;;;;;;;;;;;;;;7.40;72.95;98468.50;7384619;19;19938;-80
2023/01/12 07:00:23;;;;;;;;;;;;;;;7.52;72.66;98468.38;7387389;19;20272;-82
2023/01/12 07:02:51;;;;;;;;;;;;;;;7.36;73.06;98464.44;7389282;19;19927;-82
2023/01/12 07:05:18;;;;;;;;;;;;;;;7.38;73.28;98461.69;7384308;19;19939;-80
2023/01/12 07:07:44;;;;;;;;;;;;;;;7.41;72.97;98462.25;7387594;19;19922;-82
2023/01/12 07:10:11;;;;;;;;;;;;;;;7.50;72.66;98472.94;7385154;19;20252;-82
2023/01/12 07:12:38;;;;;;;;;;;;;;;7.48;72.85;98458.13;7383962;19;19923;-81
2023/01/12 07:15:07;;;;;;;;;;;;;;;7.53;72.39;98456.88;7384086;19;19915;-82
2023/01/12 07:17:33;;;;;;;;;;;;;;;7.45;72.66;98458.41;7388964;19;19947;-82
2023/01/12 07:20:00;;;;;;;;;;;;;;;7.52;72.84;98453.41;7378141;19;19922;-82
2023/01/12 07:22:33;;;;;;;;;;;;;;;7.39;72.84;98453.66;7382710;19;19925;-82
2023/01/12 07:24:59;;;;;;;;;;;;;;;7.70;71.75;98464.13;7384995;19;19915;-85
2023/01/12 07:27:26;;;;;;;;;;;;;;;7.62;72.37;98458.72;7382530;19;20404;-82
2023/01/12 07:29:53;;;;;;;;;;;;;;;7.70;72.27;98462.31;7384957;19;19925;-81
2023/01/12 07:32:23;;;;;;;;;;;;;;;7.82;71.58;98465.69;7385620;19;19970;-83
2023/01/12 07:34:50;;;;;;;;;;;;;;;7.73;72.10;98470.94;7392638;19;19933;-82
2023/01/12 07:37:16;;;;;;;;;;;;;;;7.68;71.62;98468.69;7390328;19;19918;-83
2023/01/12 07:39:43;;;;;;;;;;;;;;;7.85;71.57;98462.78;7393508;19;20390;-83
2023/01/12 07:42:24;;;;;;;;;;;;;;;7.83;71.11;98459.44;7386278;19;20122;-81
2023/01/12 07:44:51;;;;;;;;;;;;;;;7.95;71.20;98465.41;7388765;19;19962;-82
2023/01/12 07:47:18;;;;;;;;;;;;;;;7.88;70.95;98456.41;7387144;19;19957;-82
2023/01/12 07:49:45;;;;;;;;;;;;;;;7.95;70.34;98473.31;7393400;19;19910;-84
2023/01/12 07:52:11;;;;;;;;;;;;;;;7.86;70.63;98471.50;7385255;19;19933;-84
2023/01/12 07:54:38;;;;;;;;;;;;;;;8.03;70.20;98467.34;7394790;19;20408;-83
2023/01/12 07:57:09;;;;;;;;;;;;;;;7.98;70.68;98469.56;7386439;19;19926;-83
2023/01/12 07:59:35;;;;;;;;;;;;;;;7.91;70.89;98461.41;7383963;19;19929;-82
2023/01/12 08:02:02;;;;;;;;;;;;;;;7.71;71.51;98463.16;7380572;19;19914;-82
2023/01/12 08:04:29;;;;;;;;;;;;;;;7.71;71.51;98463.16;7383957;19;19998;-85
2023/01/12 08:06:56;;;;;;;;;;;;;;;7.68;71.61;98451.09;7379376;19;20452;-81
2023/01/12 08:09:23;;;;;;;;;;;;;;;7.67;71.54;98448.59;7383975;19;19918;-81
2023/01/12 08:11:49;;;;;;;;;;;;;;;7.65;71.29;98453.16;7386030;19;19957;-80
2023/01/12 08:14:27;;;;;;;;;;;;;;;7.64;71.40;98454.16;7378753;19;19926;-80
2023/01/12 08:16:55;;;;;;;;;;;;;;;7.64;71.59;98446.25;7380541;19;19915;-79
2023/01/12 08:19:23;;;;;;;;;;;;;;;7.85;71.64;98460.16;7372292;19;19918;-81
2023/01/12 08:21:51;;;;;;;;;;;;;;;7.78;71.45;98459.03;7378589;19;19919;-80
2023/01/12 08:24:21;;;;;;;;;;;;;;;7.67;70.54;98451.25;7380695;19;19986;-80
2023/01/12 08:26:49;;;;;;;;;;;;;;;7.70;71.16;98456.22;7379581;19;20021;-81
2023/01/12 08:29:17;;;;;;;;;;;;;;;7.80;71.52;98457.09;7382677;19;19922;-82
2023/01/12 08:31:43;;;;;;;;;;;;;;;7.77;71.78;98459.16;7381082;19;19936;-82
2023/01/12 08:34:10;;;;;;;;;;;;;;;7.69;71.23;98446.69;7376796;19;19941;-81
2023/01/12 08:36:36;;;;;;;;;;;;;;;7.78;71.10;98450.28;7376712;19;19963;-82
2023/01/12 08:39:03;;;;;;;;;;;;;;;7.77;70.55;98462.63;7377242;19;19919;-80
2023/01/12 08:41:33;;;;;;;;;;;;;;;7.90;71.05;98451.84;7381638;19;20315;-80
2023/01/12 08:44:04;;;;;;;;;;;;;;;7.78;71.58;98458.19;7378890;19;19922;-81
2023/01/12 08:46:38;;;;;;;;;;;;;;;7.85;71.00;98462.78;7379377;19;19934;-80
2023/01/12 08:49:08;;;;;;;;;;;;;;;7.68;71.62;98453.72;7374742;19;19959;-81
2023/01/12 08:51:35;;;;;;;;;;;;;;;7.82;71.05;98449.03;7378340;19;19918;-81
2023/01/12 08:54:02;;;;;;;;;;;;;;;7.80;70.95;98446.56;7378743;19;19923;-80
2023/01/12 08:56:28;;;;;;;;;;;;;;;7.82;70.82;98457.78;7378416;19;20317;-83
2023/01/12 08:58:55;;;;;;;;;;;;;;;7.76;70.62;98449.59;7384139;19;19923;-82
2023/01/12 09:01:22;;;;;;;;;;;;;;;7.97;70.57;98454.75;7374870;19;19937;-81
2023/01/12 09:03:48;;;;;;;;;;;;;;;7.96;71.61;98453.09;7376252;19;20617;-83
2023/01/12 09:06:16;;;;;;;;;;;;;;;8.07;70.72;98453.78;7374040;19;19934;-83
2023/01/12 09:08:43;;;;;;;;;;;;;;;7.87;71.02;98458.22;7376568;19;19942;-82
2023/01/12 09:11:10;;;;;;;;;;;;;;;8.14;69.98;98460.16;7376677;19;19940;-81
2023/01/12 09:13:36;;;;;;;;;;;;;;;8.17;69.58;98459.06;7378792;19;20328;-81
2023/01/12 09:16:04;;;;;;;;;;;;;;;8.04;70.29;98453.22;7379442;19;19918;-81
2023/01/12 09:18:38;;;;;;;;;;;;;;;8.34;69.66;98455.72;7383733;19;19923;-84
2023/01/12 09:21:06;;;;;;;;;;;;;;;8.05;70.12;98455.72;7379138;19;20648;-82
2023/01/12 09:23:33;;;;;;;;;;;;;;;8.20;70.20;98465.88;7383577;19;19914;-84
2023/01/12 09:26:06;;;;;;;;;;;;;;;8.47;69.79;98465.19;7376911;19;19946;-82
2023/01/12 09:28:33;;;;;;;;;;;;;;;8.36;69.91;98480.13;7384113;19;19919;-81
2023/01/12 09:31:04;;;;;;;;;;;;;;;8.13;69.84;98482.19;7383632;19;19930;-83
2023/01/12 09:33:31;;;;;;;;;;;;;;;8.44;69.60;98483.94;7377647;19;20245;-84
2023/01/12 09:35:59;;;;;;;;;;;;;;;8.29;70.03;98476.41;7384215;19;19927;-84
2023/01/12 09:38:25;;;;;;;;;;;;;;;8.52;69.29;98491.97;7383408;19;19914;-86
2023/01/12 09:40:52;;;;;;;;;;;;;;;8.57;69.81;98492.38;7381005;19;19919;-83
2023/01/12 09:48:49;;;;;;;;;;;;;;;8.71;69.58;98473.47;7384648;19;20534;-84
2023/01/12 09:51:19;;;;;;;;;;;;;;;8.66;69.64;98464.31;7380747;19;19955;-82
2023/01/12 09:53:46;;;;;;;;;;;;;;;8.78;68.83;98473.75;7380157;19;19919;-84
2023/01/12 09:56:30;;;;;;;;;;;;;;;8.59;69.74;98471.97;7380172;19;19923;-84
2023/01/12 09:59:10;;;;;;;;;;;;;;;8.75;69.94;98458.22;7378783;19;19919;-84
2023/01/12 10:01:36;;;;;;;;;;;;;;;8.77;69.58;98443.91;7378485;19;19986;-83
2023/01/12 10:04:03;;;;;;;;;;;;;;;8.81;69.65;98444.44;7378706;19;19918;-81
2023/01/12 10:06:29;;;;;;;;;;;;;;;8.82;69.15;98434.72;7381327;19;20590;-83
2023/01/12 10:08:56;;;;;;;;;;;;;;;9.05;69.29;98427.28;7376996;19;19919;-81
2023/01/12 10:11:32;;;;;;;;;;;;;;;9.11;68.85;98432.84;7376507;19;19998;-81
2023/01/12 10:14:18;;;;;;;;;;;;;;;8.81;69.52;98431.25;7373450;19;19922;-81
2023/01/12 10:17:03;;;;;;;;;;;;;;;8.84;69.84;98420.41;7375552;19;19919;-81
2023/01/12 10:19:33;;;;;;;;;;;;;;;8.88;69.66;98418.34;7375772;19;19921;-85
2023/01/12 10:22:02;;;;;;;;;;;;;;;8.84;69.48;98409.84;7378375;19;19918;-81
2023/01/12 10:24:29;;;;;;;;;;;;;;;8.98;68.73;98417.31;7382414;19;19922;-84
2023/01/12 10:26:59;;;;;;;;;;;;;;;9.10;69.08;98410.03;7379153;19;19930;-83
2023/01/12 10:29:26;;;;;;;;;;;;;;;9.25;68.90;98402.50;7378668;19;19929;-82
2023/01/12 10:31:53;;;;;;;;;;;;;;;9.28;68.57;98409.28;7382976;19;20034;-83
2023/01/12 10:34:20;;;;;;;;;;;;;;;9.34;68.30;98412.16;7378296;19;19919;-83
2023/01/12 10:36:48;;;;;;;;;;;;;;;9.51;68.56;98401.81;7375758;19;19983;-84
2023/01/12 10:39:31;;;;;;;;;;;;;;;9.47;67.58;98410.97;7380096;19;19921;-80
2023/01/12 10:43:17;;;;;;;;;;;;;;;9.30;68.14;98400.25;7378189;19;19939;-83
2023/01/12 10:45:11;;;;;;;;;;;;;;;9.38;67.80;98402.16;7378646;19;19934;-82
2023/01/12 10:47:37;;;;;;;;;;;;;;;9.36;67.95;98410.19;7378357;19;19911;-81
2023/01/12 10:50:32;;;;;;;;;;;;;;;9.47;67.60;98406.53;7378928;19;19922;-82
2023/01/12 10:53:04;;;;;;;;;;;;;;;9.29;67.59;98405.66;7386451;19;19919;-84
2023/01/12 10:55:31;;;;;;;;;;;;;;;9.34;67.59;98398.13;7385087;19;20344;-83
2023/01/12 10:57:58;;;;;;;;;;;;;;;9.28;67.66;98398.72;7383022;19;19951;-82
2023/01/12 11:00:25;;;;;;;;;;;;;;;9.39;67.43;98393.22;7382313;19;19914;-82
2023/01/12 11:02:52;;;;;;;;;;;;;;;9.31;68.06;98391.31;7376564;19;20509;-81
2023/01/12 11:05:25;;;;;;;;;;;;;;;9.31;67.53;98379.94;7372954;19;19947;-82
2023/01/12 11:07:54;;;;;;;;;;;;;;;9.41;67.34;98370.97;7382471;19;20357;-83
2023/01/12 11:10:31;;;;;;;;;;;;;;;9.32;67.43;98363.97;7381115;19;22073;-84
2023/01/12 11:13:02;;;;;;;;;;;;;;;9.51;67.24;98362.19;7381660;19;20010;-83
2023/01/12 11:15:37;;;;;;;;;;;;;;;9.51;66.66;98363.00;7379806;19;19934;-84
2023/01/12 11:18:10;;;;;;;;;;;;;;;9.36;67.20;98364.50;7380879;19;19914;-81
2023/01/12 11:20:44;;;;;;;;;;;;;;;9.53;66.77;98361.06;7381490;19;19939;-83
2023/01/12 11:23:30;;;;;;;;;;;;;;;9.26;67.27;98356.63;7379431;19;19915;-82
2023/01/12 11:25:58;;;;;;;;;;;;;;;9.33;66.68;98355.06;7388434;19;19914;-82
2023/01/12 11:28:37;;;;;;;;;;;;;;;9.27;66.92;98346.88;7384882;19;19918;-82
2023/01/12 11:31:06;;;;;;;;;;;;;;;9.36;67.01;98356.56;7389295;19;19918;-82
2023/01/12 11:33:37;;;;;;;;;;;;;;;9.44;66.41;98354.00;7392765;19;19919;-81
2023/01/12 11:36:05;;;;;;;;;;;;;;;9.48;66.59;98355.41;7386495;19;19923;-81
2023/01/12 11:38:37;;;;;;;;;;;;;;;9.53;66.64;98341.72;7386199;19;19942;-83
2023/01/12 11:41:06;;;;;;;;;;;;;;;9.83;66.25;98345.81;7384624;19;19922;-83
2023/01/12 11:43:49;;;;;;;;;;;;;;;9.87;66.15;98348.00;7388428;19;19922;-82
2023/01/12 11:46:18;;;;;;;;;;;;;;;10.05;65.05;98326.81;7384932;19;19926;-82
2023/01/12 11:48:44;;;;;;;;;;;;;;;10.39;64.58;98323.47;7385428;19;20576;-82
2023/01/12 11:51:14;;;;;;;;;;;;;;;10.27;64.77;98335.28;7383018;19;19926;-80
2023/01/12 11:53:40;;;;;;;;;;;;;;;10.18;65.00;98342.28;7386061;19;19911;-81
2023/01/12 11:56:09;;;;;;;;;;;;;;;10.15;64.57;98331.19;7383477;19;20286;-82
2023/01/12 11:58:42;;;;;;;;;;;;;;;10.57;64.98;98334.00;7383851;19;20309;-83
2023/01/12 12:01:15;;;;;;;;;;;;;;;10.86;64.07;98341.59;7386244;19;19919;-81
2023/01/12 12:03:58;;;;;;;;;;;;;;;10.91;62.75;98336.66;7391432;19;19922;-83
2023/01/12 12:06:43;;;;;;;;;;;;;;;10.87;63.46;98335.28;7379993;19;19930;-84
2023/01/12 12:09:14;;;;;;;;;;;;;;;11.04;63.02;98330.91;7391428;19;19926;-83
2023/01/12 12:12:10;;;;;;;;;;;;;;;11.02;62.84;98324.94;7387571;19;19925;-81
2023/01/12 12:14:51;;;;;;;;;;;;;;;11.32;62.46;98323.56;7385080;19;19970;-84
2023/01/12 12:17:21;;;;;;;;;;;;;;;11.09;63.53;98325.16;7386965;19;19993;-85
2023/01/12 12:19:57;;;;;;;;;;;;;;;11.06;63.38;98312.19;7383083;19;19918;-80
2023/01/12 12:22:43;;;;;;;;;;;;;;;11.17;63.57;98323.34;7387036;19;19929;-86
2023/01/12 12:25:18;;;;;;;;;;;;;;;10.88;63.46;98312.31;7385703;19;19915;-80
2023/01/12 12:27:48;;;;;;;;;;;;;;;10.86;64.76;98307.19;7388819;19;19921;-83
2023/01/12 12:30:27;;;;;;;;;;;;;;;10.99;64.23;98301.44;7382394;19;19970;-83
2023/01/12 12:33:14;;;;;;;;;;;;;;;11.07;64.29;98303.28;7385644;19;19918;-84
2023/01/12 12:35:44;;;;;;;;;;;;;;;11.12;63.45;98293.88;7381108;19;19914;-82
2023/01/12 12:38:30;;;;;;;;;;;;;;;10.71;63.92;98298.16;7382957;19;19922;-83
2023/01/12 12:46:41;;;;;;;;;;;;;;;11.02;63.94;98285.22;7379729;19;19930;-81
2023/01/12 12:49:11;;;;;;;;;;;;;;;11.15;63.73;98292.72;7380522;19;20005;-80
2023/01/12 12:51:39;;;;;;;;;;;;;;;10.96;64.05;98285.88;7382521;19;19922;-83
2023/01/12 12:54:06;;;;;;;;;;;;;;;10.95;63.59;98293.00;7379712;19;19922;-81
2023/01/12 12:56:33;;;;;;;;;;;;;;;10.69;64.38;98286.91;7381089;19;20322;-80
2023/01/12 12:59:00;;;;;;;;;;;;;;;10.55;64.77;98283.06;7384113;19;19926;-80
2023/01/12 13:01:27;;;;;;;;;;;;;;;10.45;65.84;98272.59;7377824;19;19915;-81
2023/01/12 13:04:00;;;;;;;;;;;;;;;10.67;64.50;98283.63;7383540;19;20019;-82
2023/01/12 13:06:30;;;;;;;;;;;;;;;10.59;64.73;98295.00;7380760;19;19915;-81
2023/01/12 13:08:58;;;;;;;;;;;;;;;10.62;64.78;98296.50;7381030;19;19918;-81
2023/01/12 13:11:44;;;;;;;;;;;;;;;10.65;65.00;98291.69;7379549;19;19918;-82
2023/01/12 13:14:18;;;;;;;;;;;;;;;10.52;64.67;98299.25;7377670;19;19919;-79
2023/01/12 13:16:49;;;;;;;;;;;;;;;10.47;64.90;98288.31;7380796;19;19925;-81
2023/01/12 13:19:33;;;;;;;;;;;;;;;10.24;65.47;98291.47;7378398;19;19918;-81
2023/01/12 13:22:18;;;;;;;;;;;;;;;10.39;65.65;98281.16;7380388;19;19918;-82
2023/01/12 13:24:45;;;;;;;;;;;;;;;10.48;64.92;98276.75;7378873;19;19915;-81
2023/01/12 13:27:31;;;;;;;;;;;;;;;10.55;65.42;98283.06;7376227;19;19911;-82
2023/01/12 13:30:17;;;;;;;;;;;;;;;10.53;65.11;98285.00;7383709;19;19918;-81
2023/01/12 13:32:53;;;;;;;;;;;;;;;10.45;65.09;98285.84;7383271;19;20656;-80
2023/01/12 13:35:23;;;;;;;;;;;;;;;10.23;65.31;98286.31;7376443;19;19935;-81
2023/01/12 13:37:51;;;;;;;;;;;;;;;10.38;65.91;98287.44;7381161;19;20316;-81
2023/01/12 13:40:19;;;;;;;;;;;;;;;10.51;65.79;98282.53;7378403;19;20025;-81